Time,TemperatureF,DewpointF,PressureIn,WindDirection,WindDirectionDegrees,WindSpeedMPH,WindSpeedGustMPH,Humidity,HourlyPrecipIn,Conditions,Clouds,dailyrainin,SoftwareType,DateUTC
2014-09-01 00:43:00,72.0,68.0,-100.00,North,0,4.0,11.0,88,-99.99,,,-99.99,,2014-09-01 05:43:00,
2014-09-01 00:52:00,72.0,68.0,-100.00,North,0,4.0,11.0,88,-99.99,,,-99.99,,2014-09-01 05:52:00,
2014-09-01 01:22:00,72.0,68.0,-100.00,North,0,4.0,11.0,89,-99.99,,,-99.99,,2014-09-01 06:22:00,
2014-09-01 01:32:00,72.0,68.0,-100.00,North,0,4.0,11.0,89,-99.99,,,-99.99,,2014-09-01 06:32:00,
2014-09-01 01:42:00,72.0,68.0,-100.00,North,0,4.0,11.0,89,-99.99,,,-99.99,,2014-09-01 06:42:00,
2014-09-01 01:52:00,72.0,68.0,-100.00,North,0,4.0,11.0,89,-99.99,,,-99.99,,2014-09-01 06:52:00,
2014-09-01 02:22:00,71.0,68.0,-100.00,North,0,3.0,11.0,90,-99.99,,,-99.99,,2014-09-01 07:22:00,
2014-09-01 02:32:00,71.0,68.0,-100.00,North,0,3.0,11.0,90,-99.99,,,-99.99,,2014-09-01 07:32:00,
2014-09-01 03:22:00,71.0,68.0,-100.00,North,0,4.0,11.0,90,-99.99,,,-99.99,,2014-09-01 08:22:00,
2014-09-01 03:42:00,71.0,68.0,-100.00,North,0,4.0,11.0,90,-99.99,,,-99.99,,2014-09-01 08:42:00,
2014-09-01 03:52:00,71.0,68.0,-100.00,North,0,4.0,11.0,90,-99.99,,,-99.99,,2014-09-01 08:52:00,
2014-09-01 04:34:00,71.0,68.0,-100.00,North,0,3.0,9.0,90,-99.99,,,-99.99,,2014-09-01 09:34:00,
2014-09-01 04:44:00,71.0,68.0,-100.00,North,0,3.0,9.0,90,-99.99,,,-99.99,,2014-09-01 09:44:00,
2014-09-01 04:54:00,71.0,68.0,-100.00,North,0,3.0,9.0,90,-99.99,,,-99.99,,2014-09-01 09:54:00,
2014-09-01 05:33:00,71.0,68.0,-100.00,North,0,2.0,6.0,90,-99.99,,,-99.99,,2014-09-01 10:33:00,
2014-09-01 05:54:00,71.0,68.0,-100.00,North,0,2.0,6.0,90,-99.99,,,-99.99,,2014-09-01 10:54:00,
2014-09-01 06:33:00,69.0,66.0,-100.00,North,0,2.0,4.0,90,-99.99,,,-99.99,,2014-09-01 11:33:00,
2014-09-01 06:42:00,69.0,66.0,-100.00,North,0,2.0,4.0,90,-99.99,,,-99.99,,2014-09-01 11:42:00,
2014-09-01 06:52:00,69.0,66.0,-100.00,North,0,2.0,4.0,90,-99.99,,,-99.99,,2014-09-01 11:52:00,
2014-09-01 07:42:00,69.0,66.0,-100.00,North,0,4.0,11.0,90,-99.99,,,-99.99,,2014-09-01 12:42:00,
2014-09-01 07:53:00,69.0,66.0,-100.00,North,0,4.0,11.0,90,-99.99,,,-99.99,,2014-09-01 12:53:00,
2014-09-01 08:42:00,70.0,66.0,-100.00,North,0,3.0,7.0,89,-99.99,,,-99.99,,2014-09-01 13:42:00,
2014-09-01 08:52:00,70.0,66.0,-100.00,North,0,3.0,7.0,89,-99.99,,,-99.99,,2014-09-01 13:52:00,
2014-09-01 09:52:00,70.0,66.0,-100.00,North,0,3.0,9.0,89,-99.99,,,-99.99,,2014-09-01 14:52:00,
2014-09-01 10:22:00,71.0,68.0,-100.00,North,0,2.0,9.0,90,-99.99,,,-99.99,,2014-09-01 15:22:00,
2014-09-01 10:54:00,71.0,68.0,-100.00,North,0,2.0,9.0,90,-99.99,,,-99.99,,2014-09-01 15:54:00,
2014-09-01 11:33:00,72.0,63.0,-100.00,North,0,7.0,19.0,74,-99.99,,,-99.99,,2014-09-01 16:33:00,
2014-09-01 11:43:00,72.0,63.0,-100.00,North,0,7.0,19.0,74,-99.99,,,-99.99,,2014-09-01 16:43:00,
2014-09-01 12:23:00,73.0,62.0,-100.00,North,0,6.0,14.0,68,-99.99,,,-99.99,,2014-09-01 17:23:00,
2014-09-01 12:34:00,73.0,62.0,-100.00,North,0,6.0,14.0,68,-99.99,,,-99.99,,2014-09-01 17:34:00,
2014-09-01 13:33:00,76.0,62.0,-100.00,North,0,7.0,19.0,62,-99.99,,,-99.99,,2014-09-01 18:33:00,
2014-09-01 13:42:00,76.0,62.0,-100.00,North,0,7.0,19.0,62,-99.99,,,-99.99,,2014-09-01 18:42:00,
2014-09-01 13:52:00,76.0,62.0,-100.00,North,0,7.0,19.0,62,-99.99,,,-99.99,,2014-09-01 18:52:00,
2014-09-01 14:22:00,78.0,62.0,-100.00,North,0,7.0,19.0,60,-99.99,,,-99.99,,2014-09-01 19:22:00,
2014-09-01 14:42:00,78.0,62.0,-100.00,North,0,7.0,19.0,60,-99.99,,,-99.99,,2014-09-01 19:42:00,
2014-09-01 15:23:00,80.0,61.0,-100.00,North,0,7.0,19.0,52,-99.99,,,-99.99,,2014-09-01 20:23:00,
2014-09-01 15:32:00,80.0,61.0,-100.00,North,0,7.0,19.0,52,-99.99,,,-99.99,,2014-09-01 20:32:00,
2014-09-01 15:42:00,80.0,61.0,-100.00,North,0,7.0,19.0,52,-99.99,,,-99.99,,2014-09-01 20:42:00,
2014-09-01 15:52:00,80.0,61.0,-100.00,North,0,7.0,19.0,52,-99.99,,,-99.99,,2014-09-01 20:52:00,
2014-09-01 16:22:00,79.0,60.0,-100.00,North,0,4.0,14.0,53,-99.99,,,-99.99,,2014-09-01 21:22:00,
2014-09-01 16:44:00,79.0,60.0,-100.00,North,0,4.0,14.0,53,-99.99,,,-99.99,,2014-09-01 21:44:00,
2014-09-01 16:54:00,79.0,60.0,-100.00,North,0,4.0,14.0,53,-99.99,,,-99.99,,2014-09-01 21:54:00,
2014-09-01 17:33:00,77.0,62.0,-100.00,North,0,1.0,8.0,61,-99.99,,,-99.99,,2014-09-01 22:33:00,
2014-09-01 17:43:00,77.0,62.0,-100.00,North,0,1.0,8.0,61,-99.99,,,-99.99,,2014-09-01 22:43:00,
2014-09-01 17:53:00,77.0,62.0,-100.00,North,0,1.0,8.0,61,-99.99,,,-99.99,,2014-09-01 22:53:00,
2014-09-01 18:34:00,74.0,67.0,-100.00,North,0,4.0,9.0,81,-99.99,,,-99.99,,2014-09-01 23:34:00,
2014-09-01 18:43:00,74.0,67.0,-100.00,North,0,4.0,9.0,81,-99.99,,,-99.99,,2014-09-01 23:43:00,
2014-09-01 18:53:00,74.0,67.0,-100.00,North,0,4.0,9.0,81,-99.99,,,-99.99,,2014-09-01 23:53:00,
2014-09-01 19:22:00,74.0,66.0,-100.00,North,0,4.0,7.0,77,-99.99,,,-99.99,,2014-09-02 00:22:00,
2014-09-01 19:32:00,74.0,66.0,-100.00,North,0,4.0,7.0,77,-99.99,,,-99.99,,2014-09-02 00:32:00,
2014-09-01 19:42:00,74.0,66.0,-100.00,North,0,4.0,7.0,77,-99.99,,,-99.99,,2014-09-02 00:42:00,
2014-09-01 19:52:00,74.0,66.0,-100.00,North,0,4.0,7.0,77,-99.99,,,-99.99,,2014-09-02 00:52:00,